Time;durP1;ratioP1;P1;durP2;ratioP2;P2;SDS_P1;SDS_P2;PMS_P1;PMS_P2;Temp;Humidity;BMP_temperature;BMP_pressure;BME280_temperature;BME280_humidity;BME280_pressure;Samples;Min_cycle;Max_cycle;Signal;HPM_P1;HPM_P2
2022/06/17 00:00:58;;;;;;;5.78;4.13;;;16.30;99.90;;;;;;5086605;28;20328;-67
2022/06/17 00:03:27;;;;;;;5.00;4.28;;;16.30;99.90;;;;;;5085702;28;20035;-67
2022/06/17 00:05:55;;;;;;;5.47;4.30;;;16.30;99.90;;;;;;5084245;28;20016;-67
2022/06/17 00:08:29;;;;;;;4.93;4.28;;;16.10;99.90;;;;;;5074897;28;20027;-67
2022/06/17 00:10:55;;;;;;;6.28;4.05;;;15.90;99.90;;;;;;5086227;28;20598;-67
2022/06/17 00:13:20;;;;;;;4.88;4.05;;;16.00;99.90;;;;;;5088158;28;20089;-67
2022/06/17 00:15:47;;;;;;;5.00;3.90;;;15.90;99.90;;;;;;5083599;28;20518;-67
2022/06/17 00:18:14;;;;;;;6.40;4.50;;;15.90;99.90;;;;;;5076865;28;20488;-66
2022/06/17 00:20:40;;;;;;;6.18;4.07;;;15.90;99.90;;;;;;5090617;28;20024;-67
2022/06/17 00:23:14;;;;;;;5.18;4.07;;;15.80;99.90;;;;;;5087515;28;20020;-67
2022/06/17 00:25:41;;;;;;;4.55;3.55;;;15.80;99.90;;;;;;5085075;28;20127;-67
2022/06/17 00:28:13;;;;;;;5.63;4.03;;;15.90;99.90;;;;;;5081204;28;21104;-67
2022/06/17 00:30:39;;;;;;;8.10;4.10;;;15.70;99.90;;;;;;5081155;28;20494;-67
2022/06/17 00:33:05;;;;;;;5.22;4.20;;;15.80;99.90;;;;;;5089199;28;20468;-67
2022/06/17 00:35:43;;;;;;;6.88;4.47;;;15.80;99.90;;;;;;5083890;28;20031;-66
2022/06/17 00:38:25;;;;;;;7.35;4.45;;;15.90;99.90;;;;;;5078834;28;20179;-67
2022/06/17 00:40:51;;;;;;;6.43;4.45;;;15.80;99.90;;;;;;5075519;28;20312;-67
2022/06/17 00:43:49;;;;;;;5.22;4.32;;;15.70;99.90;;;;;;5085919;28;20033;-67
2022/06/17 00:46:52;;;;;;;6.20;4.15;;;15.80;99.90;;;;;;5060292;28;20043;-66
2022/06/17 00:49:41;;;;;;;5.57;4.13;;;15.80;99.90;;;;;;5084445;28;20453;-67
2022/06/17 00:52:29;;;;;;;6.13;4.53;;;15.80;99.90;;;;;;5079850;28;20397;-67
2022/06/17 00:55:23;;;;;;;7.90;4.88;;;15.70;99.90;;;;;;5085559;28;20023;-67
2022/06/17 00:57:48;;;;;;;5.68;4.40;;;15.70;99.90;;;;;;5086565;28;20035;-66
2022/06/17 01:00:18;;;;;;;5.97;4.63;;;15.60;99.90;;;;;;5082720;28;20813;-67
2022/06/17 01:03:07;;;;;;;5.60;4.63;;;15.50;99.90;;;;;;5077898;28;20028;-67
2022/06/17 01:05:48;;;;;;;5.40;4.53;;;15.40;99.90;;;;;;5080431;28;20024;-67
2022/06/17 01:09:57;;;;;;;7.72;5.10;;;15.50;99.90;;;;;;5082957;28;20028;-67
2022/06/17 01:11:07;;;;;;;7.38;4.65;;;15.40;99.90;;;;;;5085944;28;20384;-67
2022/06/17 01:13:33;;;;;;;5.97;4.93;;;15.40;99.90;;;;;;5081006;28;20775;-67
2022/06/17 01:15:59;;;;;;;6.30;5.18;;;15.30;99.90;;;;;;5091156;28;20560;-67
2022/06/17 01:18:27;;;;;;;5.78;4.53;;;15.20;99.90;;;;;;5087133;28;20063;-66
2022/06/17 01:20:55;;;;;;;5.57;4.68;;;15.10;99.90;;;;;;5086689;28;20031;-67
2022/06/17 01:23:22;;;;;;;6.45;5.35;;;15.40;99.90;;;;;;5081680;28;20088;-67
2022/06/17 01:25:48;;;;;;;7.68;5.03;;;15.50;99.90;;;;;;5084921;28;20013;-67
2022/06/17 01:28:17;;;;;;;7.72;5.18;;;15.20;99.90;;;;;;5085874;28;20478;-66
2022/06/17 01:30:47;;;;;;;6.07;5.07;;;15.20;99.90;;;;;;5087681;28;20040;-67
2022/06/17 01:33:15;;;;;;;8.15;5.13;;;15.10;99.90;;;;;;5076282;28;20012;-66
2022/06/17 01:36:05;;;;;;;7.25;4.75;;;15.20;99.90;;;;;;5086556;28;20028;-66
2022/06/17 01:38:32;;;;;;;6.55;5.18;;;15.40;99.90;;;;;;5089461;28;20012;-66
2022/06/17 01:41:00;;;;;;;6.72;5.00;;;15.50;99.90;;;;;;5087473;28;20027;-67
2022/06/17 01:43:44;;;;;;;8.70;4.90;;;15.40;99.90;;;;;;5087346;28;20039;-67
2022/06/17 01:46:18;;;;;;;9.40;4.80;;;15.30;99.90;;;;;;5085063;28;20048;-66
2022/06/17 01:48:55;;;;;;;8.02;4.60;;;15.30;99.90;;;;;;5083863;28;20162;-66
2022/06/17 01:51:23;;;;;;;5.75;4.53;;;15.20;99.90;;;;;;5084107;28;20012;-67
2022/06/17 01:53:53;;;;;;;8.35;5.13;;;15.20;99.90;;;;;;5085754;28;20525;-67
2022/06/17 01:56:22;;;;;;;6.10;5.03;;;15.10;99.90;;;;;;5078638;28;20027;-67
2022/06/17 01:59:05;;;;;;;6.95;4.82;;;15.20;99.90;;;;;;5084949;28;20017;-66
2022/06/17 02:01:34;;;;;;;6.60;4.68;;;15.20;99.90;;;;;;5086737;28;20020;-67
2022/06/17 02:04:08;;;;;;;6.25;4.93;;;15.00;99.90;;;;;;5091006;28;20021;-67
2022/06/17 02:06:49;;;;;;;5.15;4.57;;;14.90;99.90;;;;;;5074588;28;20085;-67
2022/06/17 02:09:15;;;;;;;6.43;5.45;;;14.80;99.90;;;;;;5083932;28;20115;-67
2022/06/17 02:11:41;;;;;;;8.07;5.75;;;15.10;99.90;;;;;;5084009;28;20135;-67
2022/06/17 02:14:08;;;;;;;6.80;5.32;;;15.30;99.90;;;;;;5085529;28;20098;-66
2022/06/17 02:16:38;;;;;;;8.77;4.78;;;15.10;99.90;;;;;;5079092;28;20051;-66
2022/06/17 02:19:04;;;;;;;6.40;5.18;;;15.00;99.90;;;;;;5086288;28;20039;-66
2022/06/17 02:21:44;;;;;;;7.35;5.28;;;15.00;99.90;;;;;;5085039;28;20099;-67
2022/06/17 02:24:11;;;;;;;6.65;4.82;;;14.80;99.90;;;;;;5077219;28;20686;-67
2022/06/17 02:26:39;;;;;;;5.53;4.85;;;14.80;99.90;;;;;;5079981;28;20435;-67
2022/06/17 02:29:07;;;;;;;6.32;4.90;;;14.90;99.90;;;;;;5080569;28;20031;-66
2022/06/17 02:31:34;;;;;;;5.75;5.13;;;14.80;99.90;;;;;;5080464;28;20115;-67
2022/06/17 02:34:01;;;;;;;9.02;5.40;;;15.00;99.90;;;;;;5085351;28;20515;-66
2022/06/17 02:36:39;;;;;;;7.03;5.05;;;15.10;99.90;;;;;;5082406;28;20035;-67
2022/06/17 02:39:05;;;;;;;6.38;5.40;;;15.10;99.90;;;;;;5074563;28;20038;-67
2022/06/17 02:41:32;;;;;;;6.18;4.93;;;15.00;99.90;;;;;;5080152;28;20032;-67
2022/06/17 02:44:03;;;;;;;6.18;5.40;;;14.90;99.90;;;;;;5081387;28;20077;-67
2022/06/17 02:46:36;;;;;;;8.50;5.43;;;14.80;99.90;;;;;;5086955;28;20043;-67
2022/06/17 02:49:05;;;;;;;7.45;5.25;;;14.80;99.90;;;;;;5077119;28;20570;-67
2022/06/17 02:51:36;;;;;;;7.97;5.20;;;14.80;99.90;;;;;;5076871;28;20070;-66
2022/06/17 02:54:04;;;;;;;5.78;5.18;;;14.80;99.90;;;;;;5092986;28;20418;-66
2022/06/17 02:56:32;;;;;;;6.78;4.97;;;14.80;99.90;;;;;;5086415;28;20017;-67
2022/06/17 02:59:15;;;;;;;7.03;5.80;;;14.70;99.90;;;;;;5091168;28;20016;-67
2022/06/17 03:01:42;;;;;;;7.32;5.38;;;14.70;99.90;;;;;;5080606;28;20486;-67
2022/06/17 03:04:21;;;;;;;7.63;5.20;;;14.80;99.90;;;;;;5091771;28;20024;-67
2022/06/17 03:06:49;;;;;;;6.43;5.10;;;14.80;99.90;;;;;;5090713;28;20038;-67
2022/06/17 03:09:28;;;;;;;8.38;5.18;;;14.80;99.90;;;;;;5083536;28;20058;-66
2022/06/17 03:12:04;;;;;;;8.25;5.00;;;14.70;99.90;;;;;;5080892;28;20032;-67
2022/06/17 03:14:35;;;;;;;5.93;5.32;;;14.70;99.90;;;;;;5083653;28;20048;-66
2022/06/17 03:17:07;;;;;;;8.40;5.47;;;14.80;99.90;;;;;;5091029;28;20028;-66
2022/06/17 03:19:36;;;;;;;8.95;5.60;;;14.70;99.90;;;;;;5083015;28;20024;-67
2022/06/17 03:22:05;;;;;;;7.15;5.20;;;14.60;99.90;;;;;;5077985;28;20483;-66
2022/06/17 03:25:12;;;;;;;7.63;5.57;;;14.60;99.90;;;;;;5084749;28;20032;-67
2022/06/17 03:27:49;;;;;;;7.95;5.32;;;14.60;99.90;;;;;;5090485;28;20119;-67
2022/06/17 03:30:23;;;;;;;7.63;5.13;;;14.80;99.90;;;;;;5090678;28;20024;-67
2022/06/17 03:33:09;;;;;;;8.30;4.97;;;14.60;99.90;;;;;;5075264;28;20055;-66
2022/06/17 03:35:37;;;;;;;8.45;5.10;;;14.50;99.90;;;;;;5083064;28;20016;-66
2022/06/17 03:38:09;;;;;;;6.82;5.00;;;14.50;99.90;;;;;;5083750;28;20012;-66
2022/06/17 03:40:39;;;;;;;8.43;5.10;;;14.50;99.90;;;;;;5086863;28;20476;-67
2022/06/17 03:43:11;;;;;;;9.98;5.60;;;14.50;99.90;;;;;;5078787;27;20101;-67
2022/06/17 03:45:47;;;;;;;9.38;5.30;;;14.60;99.90;;;;;;5083868;28;20047;-66
2022/06/17 03:48:28;;;;;;;7.82;5.65;;;14.70;99.90;;;;;;5084806;28;20028;-66
2022/06/17 03:50:53;;;;;;;5.90;5.30;;;14.60;99.90;;;;;;5078843;28;20110;-67
2022/06/17 03:53:34;;;;;;;7.55;5.55;;;14.50;99.90;;;;;;5078887;28;20103;-66
2022/06/17 03:56:12;;;;;;;7.15;5.40;;;14.50;99.90;;;;;;5077168;28;20028;-66
2022/06/17 03:58:39;;;;;;;8.13;5.72;;;14.30;99.90;;;;;;5084736;28;20093;-67
2022/06/17 04:01:29;;;;;;;7.57;5.50;;;14.40;99.90;;;;;;5086415;28;20038;-66
2022/06/17 04:03:58;;;;;;;7.15;5.85;;;14.20;99.90;;;;;;5079151;28;20020;-66
2022/06/17 04:06:30;;;;;;;10.20;5.70;;;14.20;99.90;;;;;;5075543;28;20094;-66
2022/06/17 04:09:05;;;;;;;9.63;6.47;;;14.20;99.90;;;;;;5095091;28;20127;-66
2022/06/17 04:11:38;;;;;;;9.02;6.40;;;14.20;99.90;;;;;;5084969;28;20028;-66
2022/06/17 04:14:14;;;;;;;8.70;5.95;;;14.40;99.90;;;;;;5088534;28;20024;-66
2022/06/17 04:17:00;;;;;;;7.20;6.20;;;14.40;99.90;;;;;;5078312;28;20121;-66
2022/06/17 04:19:28;;;;;;;8.13;6.45;;;14.50;99.90;;;;;;5080948;28;20039;-66
2022/06/17 04:22:04;;;;;;;10.23;6.57;;;14.50;99.90;;;;;;5081958;28;20012;-66
2022/06/17 04:24:30;;;;;;;9.93;6.68;;;14.60;99.90;;;;;;5080511;28;20020;-66
2022/06/17 04:27:03;;;;;;;8.57;6.50;;;14.60;99.90;;;;;;5072057;28;20507;-66
2022/06/17 04:29:37;;;;;;;12.63;7.10;;;14.60;99.90;;;;;;5082627;28;20654;-66
2022/06/17 04:32:14;;;;;;;9.70;7.20;;;14.70;99.90;;;;;;5075570;28;20085;-66
2022/06/17 04:34:39;;;;;;;12.85;7.22;;;14.70;99.90;;;;;;5088615;28;20055;-66
2022/06/17 04:37:12;;;;;;;9.52;6.63;;;14.80;99.90;;;;;;5073403;28;20460;-66
2022/06/17 04:39:49;;;;;;;8.00;6.97;;;14.90;99.90;;;;;;5088334;28;20125;-66
2022/06/17 04:42:19;;;;;;;8.00;7.20;;;15.00;99.90;;;;;;5090681;28;20026;-66
2022/06/17 04:44:45;;;;;;;10.05;7.22;;;15.00;99.90;;;;;;5082676;28;20136;-65
2022/06/17 04:47:13;;;;;;;7.38;6.57;;;15.10;99.90;;;;;;5079569;28;20209;-66
2022/06/17 04:49:48;;;;;;;11.48;6.57;;;15.20;99.90;;;;;;5086723;28;20062;-65
2022/06/17 04:52:26;;;;;;;8.75;7.03;;;15.30;99.90;;;;;;5092025;28;20099;-65
2022/06/17 04:54:53;;;;;;;10.73;7.85;;;15.40;99.90;;;;;;5087159;28;20025;-65
2022/06/17 04:57:19;;;;;;;10.43;7.15;;;15.60;99.90;;;;;;5087703;28;20024;-65
2022/06/17 04:59:45;;;;;;;12.57;7.45;;;15.80;99.90;;;;;;5080906;28;20058;-66
2022/06/17 05:02:21;;;;;;;8.60;6.90;;;16.00;99.90;;;;;;5081253;28;20543;-65
2022/06/17 05:04:49;;;;;;;9.77;6.72;;;16.20;99.90;;;;;;5086150;28;20074;-66
2022/06/17 05:07:15;;;;;;;9.13;6.55;;;16.30;99.90;;;;;;5090433;28;20048;-65
2022/06/17 05:09:50;;;;;;;9.05;6.25;;;16.50;99.90;;;;;;5084623;28;20051;-66
2022/06/17 05:12:20;;;;;;;8.85;6.13;;;16.60;99.90;;;;;;5089292;28;20046;-69
2022/06/17 05:14:52;;;;;;;8.93;6.22;;;16.60;99.90;;;;;;5088626;28;20039;-68
2022/06/17 05:17:19;;;;;;;9.82;6.38;;;16.90;99.90;;;;;;5084887;28;20100;-67
2022/06/17 05:19:45;;;;;;;9.35;6.65;;;17.00;99.90;;;;;;5091617;28;20038;-67
2022/06/17 05:22:25;;;;;;;24.77;18.48;;;17.10;99.90;;;;;;5080835;28;20020;-61
2022/06/17 05:24:50;;;;;;;66.05;54.97;;;17.20;99.90;;;;;;5090576;28;20038;-63
2022/06/17 05:27:16;;;;;;;15.82;13.60;;;17.50;99.90;;;;;;5085064;28;20028;-67
2022/06/17 05:29:42;;;;;;;9.10;6.63;;;17.60;99.90;;;;;;5078154;28;20028;-67
2022/06/17 05:32:13;;;;;;;9.20;6.43;;;17.70;99.90;;;;;;5074753;28;20663;-67
2022/06/17 05:34:39;;;;;;;9.20;6.22;;;17.80;99.90;;;;;;5086743;28;20104;-67
2022/06/17 05:37:05;;;;;;;9.35;5.65;;;18.00;99.90;;;;;;5082404;28;20056;-67
2022/06/17 05:39:30;;;;;;;8.02;5.55;;;18.10;99.90;;;;;;5090474;28;20022;-67
2022/06/17 05:41:56;;;;;;;7.88;5.80;;;18.00;99.90;;;;;;5081682;28;20402;-66
2022/06/17 05:44:21;;;;;;;9.57;4.97;;;18.10;99.90;;;;;;5082741;28;20447;-67
2022/06/17 05:46:47;;;;;;;7.40;4.88;;;18.20;99.90;;;;;;5085350;28;20415;-67
2022/06/17 05:49:13;;;;;;;5.93;4.68;;;18.20;99.90;;;;;;5083285;28;20443;-67
2022/06/17 05:51:39;;;;;;;8.27;5.03;;;18.20;99.90;;;;;;5079257;28;20055;-67
2022/06/17 05:54:04;;;;;;;10.35;4.88;;;18.20;99.90;;;;;;5080315;28;20109;-67
2022/06/17 05:56:30;;;;;;;7.72;5.10;;;18.10;99.90;;;;;;5083239;28;20039;-69
2022/06/17 05:58:56;;;;;;;8.80;5.25;;;18.10;99.90;;;;;;5082350;28;20020;-69
2022/06/17 06:01:21;;;;;;;9.77;6.45;;;18.10;99.90;;;;;;5082098;28;20036;-69
2022/06/17 06:03:47;;;;;;;8.02;5.45;;;18.20;99.90;;;;;;5069213;28;20054;-69
2022/06/17 06:06:12;;;;;;;7.60;4.78;;;18.20;99.90;;;;;;5080792;28;20427;-67
2022/06/17 06:08:38;;;;;;;10.07;5.25;;;18.10;99.90;;;;;;5089775;28;20084;-67
2022/06/17 06:11:05;;;;;;;7.50;4.85;;;18.20;99.90;;;;;;5083993;28;20039;-67
2022/06/17 06:13:31;;;;;;;7.57;4.95;;;18.20;99.90;;;;;;5081075;28;20012;-67
2022/06/17 06:15:59;;;;;;;6.93;5.30;;;18.20;99.90;;;;;;5080837;28;20024;-67
2022/06/17 06:18:34;;;;;;;8.88;5.20;;;18.20;99.90;;;;;;5093827;28;20016;-67
2022/06/17 06:21:04;;;;;;;8.70;5.82;;;18.10;99.90;;;;;;5081362;28;20036;-67
2022/06/17 06:23:36;;;;;;;11.35;5.80;;;;;;;;;;5086422;28;20448;-67
2022/06/17 06:26:05;;;;;;;10.90;5.15;;;;;;;;;;5085663;28;20032;-67
2022/06/17 06:28:30;;;;;;;11.10;5.53;;;;;;;;;;5086507;28;20024;-67
2022/06/17 06:31:00;;;;;;;7.10;5.28;;;18.80;99.90;;;;;;5086627;28;20063;-67
2022/06/17 06:33:26;;;;;;;11.40;5.43;;;19.00;99.90;;;;;;5086054;28;20024;-67
2022/06/17 06:35:52;;;;;;;8.35;5.10;;;19.10;99.90;;;;;;5084099;28;20030;-67
2022/06/17 06:38:17;;;;;;;7.03;4.55;;;19.30;99.90;;;;;;5076869;28;20023;-68
2022/06/17 06:40:43;;;;;;;8.38;4.57;;;19.40;99.90;;;;;;5078739;28;20073;-67
2022/06/17 06:43:15;;;;;;;7.43;4.57;;;19.50;99.90;;;;;;5086892;28;20426;-68
2022/06/17 06:45:42;;;;;;;7.32;4.45;;;19.70;99.90;;;;;;5086824;28;20027;-67
2022/06/17 06:48:09;;;;;;;6.35;3.92;;;19.70;99.90;;;;;;5075367;28;20039;-67
2022/06/17 06:50:36;;;;;;;12.00;4.57;;;19.90;99.90;;;;;;5077233;28;20020;-67
2022/06/17 06:53:02;;;;;;;6.10;3.92;;;19.90;99.90;;;;;;5089477;28;20027;-67
2022/06/17 06:55:28;;;;;;;9.23;4.25;;;20.10;99.90;;;;;;5091982;28;20017;-67
2022/06/17 06:58:01;;;;;;;7.80;4.22;;;20.20;99.90;;;;;;5083737;28;20093;-67
2022/06/17 07:00:34;;;;;;;7.38;3.67;;;20.30;99.90;;;;;;5087847;28;20085;-68
2022/06/17 07:03:00;;;;;;;7.65;4.20;;;20.50;99.90;;;;;;5089829;28;20019;-67
2022/06/17 07:05:25;;;;;;;7.15;3.75;;;20.50;99.90;;;;;;5084177;28;20435;-67
2022/06/17 07:07:51;;;;;;;7.88;3.97;;;20.60;99.90;;;;;;5088564;28;20064;-67
2022/06/17 07:10:22;;;;;;;5.22;3.38;;;20.80;99.90;;;;;;5076425;28;20032;-67
2022/06/17 07:12:48;;;;;;;9.02;3.50;;;21.00;99.90;;;;;;5089361;28;20030;-67
2022/06/17 07:15:15;;;;;;;9.52;3.63;;;21.20;99.90;;;;;;5087045;28;20020;-67
2022/06/17 07:18:04;;;;;;;8.20;3.65;;;21.30;99.90;;;;;;5091630;28;20492;-67
2022/06/17 07:20:37;;;;;;;7.90;3.70;;;21.30;99.90;;;;;;5072795;28;20033;-67
2022/06/17 07:23:07;;;;;;;6.38;3.33;;;21.40;99.90;;;;;;5089940;28;20039;-67
2022/06/17 07:25:34;;;;;;;6.45;3.80;;;20.90;99.90;;;;;;5088809;28;20247;-67
2022/06/17 07:28:00;;;;;;;5.97;2.83;;;21.50;99.90;;;;;;5090906;28;20051;-67
2022/06/17 07:30:27;;;;;;;9.15;3.50;;;21.50;99.90;;;;;;5083448;28;20028;-67
2022/06/17 07:32:52;;;;;;;5.18;3.00;;;21.60;99.90;;;;;;5087750;28;20095;-67
2022/06/17 07:35:18;;;;;;;7.22;3.00;;;21.80;99.90;;;;;;5088298;28;20142;-68
2022/06/17 07:40:30;;;;;;;6.32;3.38;;;22.00;99.90;;;;;;5087572;28;20070;-68
2022/06/17 07:42:56;;;;;;;9.85;3.10;;;22.10;99.90;;;;;;5079060;28;20173;-68
2022/06/17 07:45:23;;;;;;;8.88;3.45;;;22.20;99.90;;;;;;5088394;28;20471;-68
2022/06/17 07:47:54;;;;;;;10.50;3.30;;;22.40;99.90;;;;;;5085532;28;20090;-67
2022/06/17 07:50:25;;;;;;;8.18;2.92;;;22.50;99.90;;;;;;5089724;28;20031;-67
2022/06/17 07:52:51;;;;;;;8.23;3.35;;;22.50;99.90;;;;;;5075954;28;20032;-67
2022/06/17 07:55:18;;;;;;;7.40;3.00;;;;;;;;;;5083799;28;20052;-68
2022/06/17 07:57:45;;;;;;;9.70;3.08;;;22.50;99.90;;;;;;5083027;28;20448;-67
2022/06/17 08:00:29;;;;;;;6.93;3.30;;;22.50;99.90;;;;;;5089786;28;20042;-68
2022/06/17 08:02:54;;;;;;;9.15;3.25;;;22.60;99.90;;;;;;5098018;27;20046;-68
2022/06/17 08:05:21;;;;;;;8.73;3.50;;;22.70;99.90;;;;;;5080253;28;20099;-68
2022/06/17 08:07:51;;;;;;;6.93;3.40;;;22.70;99.90;;;;;;5083561;28;20403;-68
2022/06/17 08:10:19;;;;;;;6.72;3.30;;;22.90;99.90;;;;;;5087540;28;20643;-68
2022/06/17 08:12:45;;;;;;;6.82;3.30;;;23.00;99.90;;;;;;5090066;28;20035;-68
2022/06/17 08:15:12;;;;;;;9.23;3.10;;;23.10;99.90;;;;;;5086059;28;20016;-67
2022/06/17 08:17:39;;;;;;;5.45;3.08;;;23.00;99.90;;;;;;5081190;28;20053;-68
2022/06/17 08:20:09;;;;;;;9.07;3.20;;;23.00;99.90;;;;;;5089241;28;20077;-68
2022/06/17 08:22:36;;;;;;;9.43;3.10;;;23.10;99.90;;;;;;5089995;28;20035;-68
2022/06/17 08:25:02;;;;;;;8.45;3.33;;;23.30;99.90;;;;;;5090859;28;20024;-68
2022/06/17 08:27:28;;;;;;;5.32;2.67;;;23.40;99.90;;;;;;5092283;28;20426;-68
2022/06/17 08:29:53;;;;;;;7.85;2.97;;;23.50;99.90;;;;;;5080432;28;20019;-68
2022/06/17 08:35:04;;;;;;;6.22;2.65;;;23.60;99.90;;;;;;5086049;28;20031;-68
2022/06/17 08:37:31;;;;;;;6.72;2.40;;;23.40;99.90;;;;;;5089475;28;20476;-67
2022/06/17 08:39:57;;;;;;;6.35;2.40;;;23.80;99.90;;;;;;5087220;28;20032;-67
2022/06/17 08:42:42;;;;;;;5.93;2.33;;;24.10;99.90;;;;;;5093082;28;20453;-68
2022/06/17 08:45:32;;;;;;;8.32;2.88;;;23.90;99.90;;;;;;5087855;28;20024;-67
2022/06/17 08:48:23;;;;;;;5.25;2.50;;;24.00;99.90;;;;;;5085954;28;20698;-67
2022/06/17 08:51:00;;;;;;;6.75;2.60;;;24.10;99.90;;;;;;5087994;28;20078;-68
2022/06/17 08:53:40;;;;;;;6.22;2.83;;;24.00;99.90;;;;;;5094417;28;20011;-68
2022/06/17 08:56:07;;;;;;;7.80;2.80;;;;;;;;;;5091666;28;20016;-68
2022/06/17 08:58:47;;;;;;;8.38;2.70;;;;;;;;;;5093175;28;20483;-68
2022/06/17 09:01:16;;;;;;;7.68;2.63;;;;;;;;;;5086334;28;20101;-68
2022/06/17 09:03:51;;;;;;;8.27;2.60;;;;;;;;;;5097051;28;20054;-68
2022/06/17 09:06:24;;;;;;;6.00;2.72;;;;;;;;;;5086190;28;20115;-68
2022/06/17 09:08:54;;;;;;;4.82;2.25;;;;;;;;;;5094308;28;20028;-68
2022/06/17 09:11:40;;;;;;;5.03;2.58;;;;;;;;;;5087244;28;20047;-68
2022/06/17 09:14:28;;;;;;;6.13;2.90;;;;;;;;;;5091894;28;20063;-68
2022/06/17 09:17:07;;;;;;;9.77;2.80;;;;;;;;;;5093101;28;20028;-68
2022/06/17 09:19:35;;;;;;;6.10;2.67;;;;;;;;;;5091759;28;20019;-68
2022/06/17 09:22:05;;;;;;;3.55;2.20;;;;;;;;;;5085818;28;20074;-68
2022/06/17 09:24:36;;;;;;;8.18;2.40;;;;;;;;;;5090223;28;20035;-68
2022/06/17 09:27:04;;;;;;;4.93;2.13;;;;;;;;;;5089359;28;20435;-67
2022/06/17 09:29:31;;;;;;;6.40;2.20;;;;;;;;;;5085335;28;20040;-67
2022/06/17 09:32:03;;;;;;;5.38;2.10;;;;;;;;;;5084671;28;20048;-67
2022/06/17 09:34:36;;;;;;;4.55;2.28;;;;;;;;;;5088622;28;20028;-67
2022/06/17 09:37:11;;;;;;;5.60;2.08;;;;;;;;;;5093240;28;20020;-67
2022/06/17 09:39:43;;;;;;;4.07;2.45;;;;;;;;;;5083110;28;20410;-68
2022/06/17 09:42:35;;;;;;;5.65;2.05;;;24.90;99.90;;;;;;5091983;28;20897;-67
2022/06/17 09:45:30;;;;;;;5.28;2.05;;;25.10;99.90;;;;;;5083273;28;20044;-67
2022/06/17 09:48:28;;;;;;;5.88;2.15;;;25.10;99.90;;;;;;5086587;28;20020;-67
2022/06/17 09:51:06;;;;;;;4.63;1.80;;;25.20;99.90;;;;;;5079200;28;20020;-68
2022/06/17 09:53:35;;;;;;;7.25;2.00;;;25.30;99.90;;;;;;5085449;28;20028;-67
2022/06/17 09:56:22;;;;;;;4.80;1.70;;;;;;;;;;5094949;28;20483;-67
2022/06/17 09:58:58;;;;;;;6.18;2.00;;;;;;;;;;5084291;28;20028;-67
2022/06/17 10:01:26;;;;;;;4.20;2.20;;;;;;;;;;5084917;28;20502;-67
2022/06/17 10:03:52;;;;;;;8.43;2.20;;;25.30;99.90;;;;;;5092099;28;20016;-67
2022/06/17 10:06:38;;;;;;;6.60;2.45;;;25.40;99.90;;;;;;5090574;28;20024;-67
2022/06/17 10:09:14;;;;;;;6.38;3.42;;;;;;;;;;5088360;28;20071;-67
2022/06/17 10:11:40;;;;;;;6.93;3.33;;;;;;;;;;5088345;27;20569;-67
2022/06/17 10:14:27;;;;;;;6.28;4.03;;;;;;;;;;5088860;28;20378;-67
2022/06/17 10:19:50;;;;;;;7.03;3.42;;;;;;;;;;5085602;28;20054;-67
2022/06/17 10:22:29;;;;;;;6.82;3.08;;;;;;;;;;5074372;28;20497;-67
2022/06/17 10:24:55;;;;;;;5.88;2.83;;;;;;;;;;5083827;28;20596;-66
2022/06/17 10:27:38;;;;;;;5.40;2.33;;;;;;;;;;5086011;28;20032;-67
2022/06/17 10:30:14;;;;;;;6.23;2.27;;;;;;;;;;5082068;28;20097;-67
2022/06/17 10:32:44;;;;;;;5.95;2.00;;;;;;;;;;5079668;28;20763;-67
2022/06/17 10:35:15;;;;;;;4.38;1.67;;;;;;;;;;5077256;28;20485;-67
2022/06/17 10:37:42;;;;;;;4.82;1.63;;;;;;;;;;5079258;28;20021;-66
2022/06/17 10:40:09;;;;;;;4.97;1.80;;;25.60;99.90;;;;;;5078984;28;20059;-66
2022/06/17 10:42:35;;;;;;;5.53;1.90;;;25.90;99.90;;;;;;5081760;28;20537;-66
2022/06/17 10:45:02;;;;;;;6.40;2.67;;;25.90;99.90;;;;;;5083713;28;20031;-67
2022/06/17 10:47:50;;;;;;;4.18;1.63;;;26.10;99.90;;;;;;5091140;28;20028;-67
2022/06/17 10:50:27;;;;;;;5.07;1.80;;;26.00;99.90;;;;;;5076594;28;20033;-67
2022/06/17 10:52:57;;;;;;;214.65;190.88;;;26.10;99.90;;;;;;5086870;28;20038;-67
2022/06/17 10:55:30;;;;;;;7.25;2.90;;;;;;;;;;5083744;28;20566;-68
2022/06/17 10:58:20;;;;;;;4.07;1.83;;;26.10;99.90;;;;;;5094333;28;20016;-67
2022/06/17 11:00:59;;;;;;;6.85;2.08;;;26.20;99.90;;;;;;5087207;28;20107;-67
2022/06/17 11:03:29;;;;;;;4.57;1.58;;;;;;;;;;5086527;28;20359;-68
2022/06/17 11:06:15;;;;;;;3.60;2.08;;;;;;;;;;5087170;28;20057;-67
2022/06/17 11:08:54;;;;;;;3.45;2.17;;;26.40;99.90;;;;;;5082705;28;20118;-66
2022/06/17 11:14:31;;;;;;;4.97;2.90;;;26.40;99.90;;;;;;5082256;28;20085;-66
2022/06/17 11:16:58;;;;;;;11.90;5.63;;;26.50;99.90;;;;;;5086108;28;20027;-66
2022/06/17 11:19:26;;;;;;;10.13;5.40;;;26.70;99.90;;;;;;5095361;28;20046;-66
2022/06/17 11:21:58;;;;;;;4.38;2.20;;;26.80;99.90;;;;;;5086098;28;20026;-67
2022/06/17 11:24:38;;;;;;;4.45;2.15;;;26.80;99.90;;;;;;5085449;28;20505;-67
2022/06/17 11:27:13;;;;;;;5.10;2.30;;;27.00;99.90;;;;;;5089128;28;20098;-66
2022/06/17 11:29:46;;;;;;;11.63;7.50;;;27.10;99.90;;;;;;5087923;28;20032;-66
2022/06/17 11:32:32;;;;;;;5.90;2.10;;;27.00;99.90;;;;;;5091145;28;20070;-65
2022/06/17 11:35:26;;;;;;;8.70;2.15;;;27.00;99.90;;;;;;5088414;28;20015;-66
2022/06/17 11:37:54;;;;;;;3.63;1.70;;;26.90;99.90;;;;;;5081151;28;20487;-66
2022/06/17 11:40:32;;;;;;;5.18;2.85;;;26.80;99.90;;;;;;5089050;28;20523;-66
2022/06/17 11:43:03;;;;;;;4.78;2.00;;;26.90;99.90;;;;;;5088024;28;20633;-66
2022/06/17 11:45:31;;;;;;;6.38;4.15;;;26.70;99.90;;;;;;5088556;28;20060;-66
2022/06/17 11:48:10;;;;;;;4.32;1.95;;;26.70;99.90;;;;;;5087793;28;20020;-65
2022/06/17 11:50:40;;;;;;;3.63;1.60;;;26.80;99.90;;;;;;5087717;28;20077;-66
2022/06/17 11:53:17;;;;;;;5.25;2.70;;;26.80;99.90;;;;;;5090590;28;20083;-66
2022/06/17 11:55:48;;;;;;;5.28;2.13;;;26.80;99.90;;;;;;5088330;28;20043;-67
2022/06/17 11:58:19;;;;;;;2.40;1.85;;;26.80;99.90;;;;;;5090328;28;20483;-66
2022/06/17 12:00:51;;;;;;;4.75;1.92;;;26.80;99.90;;;;;;5086558;28;20043;-66
2022/06/17 12:03:21;;;;;;;7.57;2.55;;;26.70;99.90;;;;;;5080290;28;20032;-66
2022/06/17 12:06:01;;;;;;;4.90;1.98;;;26.80;99.90;;;;;;5083384;28;20032;-66
2022/06/17 12:08:59;;;;;;;6.03;1.85;;;26.80;99.90;;;;;;5078410;28;20395;-66
2022/06/17 12:11:56;;;;;;;9.52;2.80;;;26.80;99.90;;;;;;5039824;28;20048;-69
2022/06/17 12:14:53;;;;;;;23.80;18.45;;;26.90;99.90;;;;;;5070504;28;20037;-66
2022/06/17 12:17:20;;;;;;;4.20;1.52;;;26.80;99.90;;;;;;5076999;28;20445;-66
2022/06/17 12:19:46;;;;;;;6.15;2.05;;;26.90;99.90;;;;;;5076063;28;20031;-66
2022/06/17 12:22:41;;;;;;;8.48;1.90;;;26.90;99.90;;;;;;5077699;28;20019;-65
2022/06/17 12:25:33;;;;;;;4.57;1.60;;;26.70;99.90;;;;;;5087568;28;20043;-65
2022/06/17 12:28:07;;;;;;;3.38;1.70;;;26.80;99.90;;;;;;5078853;28;20252;-65
2022/06/17 12:30:56;;;;;;;4.60;1.65;;;26.80;99.90;;;;;;5076817;28;20024;-66
2022/06/17 12:33:31;;;;;;;3.95;1.52;;;27.00;99.90;;;;;;5076891;28;20016;-66
2022/06/17 12:36:11;;;;;;;3.92;1.70;;;27.00;99.90;;;;;;5077977;28;20024;-66
2022/06/17 12:38:57;;;;;;;3.20;1.58;;;27.20;99.90;;;;;;5073856;28;20038;-66
2022/06/17 12:41:33;;;;;;;4.13;1.65;;;27.20;99.90;;;;;;5082787;28;20048;-66
2022/06/17 12:44:15;;;;;;;3.47;1.40;;;27.10;99.90;;;;;;5085605;28;20031;-65
2022/06/17 12:47:05;;;;;;;3.55;1.45;;;27.10;99.90;;;;;;5076352;28;20560;-66
2022/06/17 12:55:55;;;;;;;5.20;1.48;;;27.40;99.90;;;;;;5079229;28;20024;-67
2022/06/17 12:59:01;;;;;;;4.28;1.60;;;27.30;99.90;;;;;;5079156;28;20024;-66
2022/06/17 13:01:27;;;;;;;3.15;1.50;;;27.30;99.90;;;;;;5081678;28;20515;-65
2022/06/17 13:03:55;;;;;;;4.78;1.58;;;27.30;99.90;;;;;;5081236;28;20069;-66
2022/06/17 13:06:48;;;;;;;4.57;2.47;;;27.30;99.90;;;;;;5085127;28;20034;-66
2022/06/17 13:09:39;;;;;;;4.78;1.50;;;27.30;99.90;;;;;;5079386;28;20035;-66
2022/06/17 13:12:11;;;;;;;12.90;8.23;;;27.30;99.90;;;;;;5082079;28;20498;-65
2022/06/17 13:15:13;;;;;;;3.78;1.38;;;27.40;99.90;;;;;;5080663;28;20021;-65
2022/06/17 13:17:58;;;;;;;3.38;1.33;;;27.40;99.90;;;;;;5087040;28;20064;-66
2022/06/17 13:20:30;;;;;;;5.85;2.67;;;27.40;99.90;;;;;;5084700;28;20035;-65
2022/06/17 13:23:13;;;;;;;3.60;1.20;;;27.40;99.90;;;;;;5093193;28;20032;-66
2022/06/17 13:25:47;;;;;;;;;;;27.30;99.90;;;;;;5090794;28;20020;-66
2022/06/17 13:28:28;;;;;;;3.83;1.42;;;27.30;99.90;;;;;;5082836;28;20311;-66
2022/06/17 13:31:08;;;;;;;4.93;2.58;;;27.60;99.90;;;;;;5082262;28;20621;-66
2022/06/17 13:33:50;;;;;;;15.00;8.68;;;27.50;99.90;;;;;;5085457;28;20376;-65
2022/06/17 13:36:21;;;;;;;18.25;11.07;;;27.40;99.90;;;;;;5084035;28;20112;-66
2022/06/17 13:39:10;;;;;;;5.85;1.48;;;27.50;99.90;;;;;;5072399;28;21133;-66
2022/06/17 13:42:02;;;;;;;20.95;13.77;;;27.60;99.90;;;;;;5082880;28;20116;-66
2022/06/17 13:44:55;;;;;;;13.20;6.95;;;27.50;99.90;;;;;;5079095;28;20032;-66
2022/06/17 13:47:24;;;;;;;5.53;1.67;;;27.60;99.90;;;;;;5084323;28;20036;-66